sensor_id;sensor_type;location;lat;lon;timestamp;P1;durP1;ratioP1;P2;durP2;ratioP2
8642;SDS011;4359;49.358;11.256;2022-07-09T00:00:06;6.22;;;1.92;;
8642;SDS011;4359;49.358;11.256;2022-07-09T00:02:32;9.95;;;2.10;;
8642;SDS011;4359;49.358;11.256;2022-07-09T00:04:59;5.82;;;1.85;;
8642;SDS011;4359;49.358;11.256;2022-07-09T00:07:25;3.55;;;1.70;;
8642;SDS011;4359;49.358;11.256;2022-07-09T00:09:51;4.30;;;1.95;;
8642;SDS011;4359;49.358;11.256;2022-07-09T00:12:17;3.47;;;1.60;;
8642;SDS011;4359;49.358;11.256;2022-07-09T00:14:43;4.55;;;1.92;;
8642;SDS011;4359;49.358;11.256;2022-07-09T00:17:09;6.72;;;2.15;;
8642;SDS011;4359;49.358;11.256;2022-07-09T00:19:34;5.57;;;2.05;;
8642;SDS011;4359;49.358;11.256;2022-07-09T00:22:00;6.30;;;1.90;;
8642;SDS011;4359;49.358;11.256;2022-07-09T00:24:26;4.28;;;2.30;;
8642;SDS011;4359;49.358;11.256;2022-07-09T00:26:52;5.43;;;1.80;;
8642;SDS011;4359;49.358;11.256;2022-07-09T00:29:17;4.47;;;1.92;;
8642;SDS011;4359;49.358;11.256;2022-07-09T00:31:43;6.38;;;2.60;;
8642;SDS011;4359;49.358;11.256;2022-07-09T00:34:10;7.90;;;3.78;;
8642;SDS011;4359;49.358;11.256;2022-07-09T00:36:37;4.75;;;2.67;;
8642;SDS011;4359;49.358;11.256;2022-07-09T00:39:02;8.57;;;2.95;;
8642;SDS011;4359;49.358;11.256;2022-07-09T00:41:29;5.00;;;2.83;;
8642;SDS011;4359;49.358;11.256;2022-07-09T00:43:54;6.65;;;2.63;;
8642;SDS011;4359;49.358;11.256;2022-07-09T00:46:20;3.72;;;2.28;;
8642;SDS011;4359;49.358;11.256;2022-07-09T00:48:47;6.50;;;2.40;;
8642;SDS011;4359;49.358;11.256;2022-07-09T00:51:13;6.25;;;2.80;;
8642;SDS011;4359;49.358;11.256;2022-07-09T00:53:41;5.93;;;2.60;;
8642;SDS011;4359;49.358;11.256;2022-07-09T00:56:08;6.78;;;2.58;;
8642;SDS011;4359;49.358;11.256;2022-07-09T00:58:34;5.22;;;2.78;;
8642;SDS011;4359;49.358;11.256;2022-07-09T01:01:01;6.32;;;2.80;;
8642;SDS011;4359;49.358;11.256;2022-07-09T01:03:27;5.32;;;2.50;;
8642;SDS011;4359;49.358;11.256;2022-07-09T01:05:53;4.55;;;2.35;;
8642;SDS011;4359;49.358;11.256;2022-07-09T01:08:20;8.75;;;2.50;;
8642;SDS011;4359;49.358;11.256;2022-07-09T01:10:47;4.90;;;2.20;;
8642;SDS011;4359;49.358;11.256;2022-07-09T01:13:16;5.93;;;2.90;;
8642;SDS011;4359;49.358;11.256;2022-07-09T01:15:41;5.72;;;2.75;;
8642;SDS011;4359;49.358;11.256;2022-07-09T01:18:11;5.20;;;2.72;;
8642;SDS011;4359;49.358;11.256;2022-07-09T01:20:37;5.47;;;2.60;;
8642;SDS011;4359;49.358;11.256;2022-07-09T01:23:03;7.85;;;3.22;;
8642;SDS011;4359;49.358;11.256;2022-07-09T01:25:35;5.13;;;2.88;;
8642;SDS011;4359;49.358;11.256;2022-07-09T01:28:10;5.35;;;2.88;;
8642;SDS011;4359;49.358;11.256;2022-07-09T01:30:38;5.47;;;3.17;;
8642;SDS011;4359;49.358;11.256;2022-07-09T01:33:05;5.00;;;3.28;;
8642;SDS011;4359;49.358;11.256;2022-07-09T01:35:31;6.25;;;3.70;;
8642;SDS011;4359;49.358;11.256;2022-07-09T01:37:57;6.38;;;3.35;;
8642;SDS011;4359;49.358;11.256;2022-07-09T01:40:23;7.35;;;3.00;;
8642;SDS011;4359;49.358;11.256;2022-07-09T01:42:49;6.13;;;3.05;;
8642;SDS011;4359;49.358;11.256;2022-07-09T01:45:15;7.60;;;3.22;;
8642;SDS011;4359;49.358;11.256;2022-07-09T01:47:42;6.22;;;3.10;;
8642;SDS011;4359;49.358;11.256;2022-07-09T01:50:08;5.55;;;3.65;;
8642;SDS011;4359;49.358;11.256;2022-07-09T01:52:35;6.82;;;4.13;;
8642;SDS011;4359;49.358;11.256;2022-07-09T01:55:02;7.55;;;3.80;;
8642;SDS011;4359;49.358;11.256;2022-07-09T01:57:28;9.57;;;4.10;;
8642;SDS011;4359;49.358;11.256;2022-07-09T01:59:54;6.68;;;4.20;;
8642;SDS011;4359;49.358;11.256;2022-07-09T02:02:19;7.63;;;3.33;;
8642;SDS011;4359;49.358;11.256;2022-07-09T02:04:45;6.07;;;3.30;;
8642;SDS011;4359;49.358;11.256;2022-07-09T02:07:12;6.97;;;3.30;;
8642;SDS011;4359;49.358;11.256;2022-07-09T02:09:38;9.60;;;3.53;;
8642;SDS011;4359;49.358;11.256;2022-07-09T02:12:05;5.30;;;3.50;;
8642;SDS011;4359;49.358;11.256;2022-07-09T02:14:31;8.40;;;3.83;;
8642;SDS011;4359;49.358;11.256;2022-07-09T02:16:56;10.10;;;3.83;;
8642;SDS011;4359;49.358;11.256;2022-07-09T02:19:22;9.27;;;4.68;;
8642;SDS011;4359;49.358;11.256;2022-07-09T02:21:48;8.15;;;3.88;;
8642;SDS011;4359;49.358;11.256;2022-07-09T02:24:14;6.95;;;3.75;;
8642;SDS011;4359;49.358;11.256;2022-07-09T02:26:40;7.80;;;4.50;;
8642;SDS011;4359;49.358;11.256;2022-07-09T02:29:06;5.65;;;3.60;;
8642;SDS011;4359;49.358;11.256;2022-07-09T02:31:31;7.10;;;3.42;;
8642;SDS011;4359;49.358;11.256;2022-07-09T02:33:57;8.13;;;3.45;;
8642;SDS011;4359;49.358;11.256;2022-07-09T02:36:23;5.50;;;3.05;;
8642;SDS011;4359;49.358;11.256;2022-07-09T02:38:49;6.57;;;3.50;;
8642;SDS011;4359;49.358;11.256;2022-07-09T02:41:14;7.20;;;3.38;;
8642;SDS011;4359;49.358;11.256;2022-07-09T02:43:40;8.75;;;4.03;;
8642;SDS011;4359;49.358;11.256;2022-07-09T02:46:09;4.95;;;3.15;;
8642;SDS011;4359;49.358;11.256;2022-07-09T02:48:35;4.28;;;3.10;;
8642;SDS011;4359;49.358;11.256;2022-07-09T02:51:01;5.18;;;3.10;;
8642;SDS011;4359;49.358;11.256;2022-07-09T02:53:27;7.72;;;3.45;;
8642;SDS011;4359;49.358;11.256;2022-07-09T02:55:52;6.93;;;3.00;;
8642;SDS011;4359;49.358;11.256;2022-07-09T02:58:18;5.60;;;3.42;;
8642;SDS011;4359;49.358;11.256;2022-07-09T03:00:44;6.63;;;3.78;;
8642;SDS011;4359;49.358;11.256;2022-07-09T03:03:09;5.15;;;2.97;;
8642;SDS011;4359;49.358;11.256;2022-07-09T03:05:35;8.68;;;3.50;;
8642;SDS011;4359;49.358;11.256;2022-07-09T03:08:01;6.50;;;3.10;;
8642;SDS011;4359;49.358;11.256;2022-07-09T03:10:27;6.47;;;3.10;;
8642;SDS011;4359;49.358;11.256;2022-07-09T03:12:53;10.77;;;3.15;;
8642;SDS011;4359;49.358;11.256;2022-07-09T03:15:19;8.73;;;3.42;;
8642;SDS011;4359;49.358;11.256;2022-07-09T03:17:45;7.88;;;3.00;;
8642;SDS011;4359;49.358;11.256;2022-07-09T03:20:12;7.03;;;3.13;;
8642;SDS011;4359;49.358;11.256;2022-07-09T03:22:38;5.32;;;2.83;;
8642;SDS011;4359;49.358;11.256;2022-07-09T03:25:05;5.35;;;2.88;;
8642;SDS011;4359;49.358;11.256;2022-07-09T03:27:32;7.15;;;3.70;;
8642;SDS011;4359;49.358;11.256;2022-07-09T03:29:58;7.95;;;3.30;;
8642;SDS011;4359;49.358;11.256;2022-07-09T03:32:24;6.75;;;2.95;;
8642;SDS011;4359;49.358;11.256;2022-07-09T03:34:50;6.15;;;3.17;;
8642;SDS011;4359;49.358;11.256;2022-07-09T03:37:17;6.88;;;3.30;;
8642;SDS011;4359;49.358;11.256;2022-07-09T03:39:44;7.95;;;3.15;;
8642;SDS011;4359;49.358;11.256;2022-07-09T03:42:10;6.75;;;3.13;;
8642;SDS011;4359;49.358;11.256;2022-07-09T03:44:36;6.22;;;3.08;;
8642;SDS011;4359;49.358;11.256;2022-07-09T03:47:02;6.75;;;3.20;;
8642;SDS011;4359;49.358;11.256;2022-07-09T03:49:28;4.45;;;2.80;;
8642;SDS011;4359;49.358;11.256;2022-07-09T03:51:54;7.00;;;2.58;;
8642;SDS011;4359;49.358;11.256;2022-07-09T03:54:20;3.63;;;2.42;;
8642;SDS011;4359;49.358;11.256;2022-07-09T03:56:46;5.45;;;2.78;;
8642;SDS011;4359;49.358;11.256;2022-07-09T03:59:11;5.45;;;3.20;;
8642;SDS011;4359;49.358;11.256;2022-07-09T04:01:37;5.78;;;2.80;;
8642;SDS011;4359;49.358;11.256;2022-07-09T04:04:03;6.18;;;2.67;;
8642;SDS011;4359;49.358;11.256;2022-07-09T04:06:29;7.05;;;2.83;;
8642;SDS011;4359;49.358;11.256;2022-07-09T04:08:55;4.30;;;2.90;;
8642;SDS011;4359;49.358;11.256;2022-07-09T04:11:21;6.00;;;2.83;;
8642;SDS011;4359;49.358;11.256;2022-07-09T04:13:47;4.90;;;2.70;;
8642;SDS011;4359;49.358;11.256;2022-07-09T04:16:14;6.28;;;2.70;;
8642;SDS011;4359;49.358;11.256;2022-07-09T04:18:39;4.88;;;2.30;;
8642;SDS011;4359;49.358;11.256;2022-07-09T04:21:08;5.70;;;2.60;;
8642;SDS011;4359;49.358;11.256;2022-07-09T04:23:34;12.25;;;3.22;;
8642;SDS011;4359;49.358;11.256;2022-07-09T04:26:00;5.82;;;2.75;;
8642;SDS011;4359;49.358;11.256;2022-07-09T04:28:26;6.97;;;2.67;;
8642;SDS011;4359;49.358;11.256;2022-07-09T04:30:52;6.82;;;3.05;;
8642;SDS011;4359;49.358;11.256;2022-07-09T04:33:17;4.97;;;2.53;;
8642;SDS011;4359;49.358;11.256;2022-07-09T04:35:44;4.72;;;2.55;;
8642;SDS011;4359;49.358;11.256;2022-07-09T04:38:11;5.18;;;2.50;;
8642;SDS011;4359;49.358;11.256;2022-07-09T04:40:37;4.95;;;2.30;;
8642;SDS011;4359;49.358;11.256;2022-07-09T04:43:03;7.05;;;2.40;;
8642;SDS011;4359;49.358;11.256;2022-07-09T04:45:29;5.32;;;2.10;;
8642;SDS011;4359;49.358;11.256;2022-07-09T04:47:57;5.43;;;2.30;;
8642;SDS011;4359;49.358;11.256;2022-07-09T04:50:24;5.38;;;2.97;;
8642;SDS011;4359;49.358;11.256;2022-07-09T04:52:49;3.88;;;2.30;;
8642;SDS011;4359;49.358;11.256;2022-07-09T04:55:15;4.03;;;2.28;;
8642;SDS011;4359;49.358;11.256;2022-07-09T04:57:42;5.43;;;2.42;;
8642;SDS011;4359;49.358;11.256;2022-07-09T05:00:08;3.72;;;2.17;;
8642;SDS011;4359;49.358;11.256;2022-07-09T05:02:36;5.47;;;2.42;;
8642;SDS011;4359;49.358;11.256;2022-07-09T05:05:02;4.20;;;2.10;;
8642;SDS011;4359;49.358;11.256;2022-07-09T05:07:29;4.80;;;2.25;;
8642;SDS011;4359;49.358;11.256;2022-07-09T05:09:55;4.70;;;2.42;;
8642;SDS011;4359;49.358;11.256;2022-07-09T05:12:21;5.30;;;2.00;;
8642;SDS011;4359;49.358;11.256;2022-07-09T05:14:47;3.97;;;2.00;;
8642;SDS011;4359;49.358;11.256;2022-07-09T05:17:14;6.38;;;2.42;;
8642;SDS011;4359;49.358;11.256;2022-07-09T05:19:40;7.57;;;2.60;;
8642;SDS011;4359;49.358;11.256;2022-07-09T05:22:05;4.70;;;2.33;;
8642;SDS011;4359;49.358;11.256;2022-07-09T05:24:31;5.15;;;2.15;;
8642;SDS011;4359;49.358;11.256;2022-07-09T05:26:57;3.60;;;2.03;;
8642;SDS011;4359;49.358;11.256;2022-07-09T05:29:22;4.32;;;2.30;;
8642;SDS011;4359;49.358;11.256;2022-07-09T05:31:49;6.38;;;2.10;;
8642;SDS011;4359;49.358;11.256;2022-07-09T05:34:15;5.57;;;2.33;;
8642;SDS011;4359;49.358;11.256;2022-07-09T05:36:41;6.93;;;2.30;;
8642;SDS011;4359;49.358;11.256;2022-07-09T05:39:07;6.03;;;2.30;;
8642;SDS011;4359;49.358;11.256;2022-07-09T05:41:33;5.63;;;2.60;;
8642;SDS011;4359;49.358;11.256;2022-07-09T05:43:59;4.05;;;2.20;;
8642;SDS011;4359;49.358;11.256;2022-07-09T05:46:28;6.47;;;2.15;;
8642;SDS011;4359;49.358;11.256;2022-07-09T05:48:54;12.32;;;3.75;;
8642;SDS011;4359;49.358;11.256;2022-07-09T05:51:21;5.13;;;2.42;;
8642;SDS011;4359;49.358;11.256;2022-07-09T05:53:47;9.50;;;2.90;;
8642;SDS011;4359;49.358;11.256;2022-07-09T05:56:13;10.27;;;2.63;;
8642;SDS011;4359;49.358;11.256;2022-07-09T05:58:38;5.57;;;2.55;;
8642;SDS011;4359;49.358;11.256;2022-07-09T06:01:05;5.38;;;1.95;;
8642;SDS011;4359;49.358;11.256;2022-07-09T06:03:31;4.03;;;1.80;;
8642;SDS011;4359;49.358;11.256;2022-07-09T06:05:57;5.05;;;1.98;;
8642;SDS011;4359;49.358;11.256;2022-07-09T06:08:23;4.75;;;2.10;;
8642;SDS011;4359;49.358;11.256;2022-07-09T06:10:49;6.40;;;2.10;;
8642;SDS011;4359;49.358;11.256;2022-07-09T06:13:15;12.45;;;2.10;;
8642;SDS011;4359;49.358;11.256;2022-07-09T06:15:41;4.53;;;2.00;;
8642;SDS011;4359;49.358;11.256;2022-07-09T06:18:07;5.75;;;2.03;;
8642;SDS011;4359;49.358;11.256;2022-07-09T06:20:32;4.95;;;1.98;;
8642;SDS011;4359;49.358;11.256;2022-07-09T06:22:58;5.20;;;1.65;;
8642;SDS011;4359;49.358;11.256;2022-07-09T06:25:24;4.97;;;1.90;;
8642;SDS011;4359;49.358;11.256;2022-07-09T06:27:50;5.72;;;2.00;;
8642;SDS011;4359;49.358;11.256;2022-07-09T06:30:15;6.00;;;1.80;;
8642;SDS011;4359;49.358;11.256;2022-07-09T06:32:42;6.68;;;1.83;;
8642;SDS011;4359;49.358;11.256;2022-07-09T06:35:08;5.40;;;1.88;;
8642;SDS011;4359;49.358;11.256;2022-07-09T06:37:34;5.18;;;1.95;;
8642;SDS011;4359;49.358;11.256;2022-07-09T06:39:59;4.70;;;1.88;;
8642;SDS011;4359;49.358;11.256;2022-07-09T06:42:25;4.13;;;1.88;;
8642;SDS011;4359;49.358;11.256;2022-07-09T06:44:51;6.47;;;1.77;;
8642;SDS011;4359;49.358;11.256;2022-07-09T06:47:17;5.05;;;1.63;;
8642;SDS011;4359;49.358;11.256;2022-07-09T06:49:43;4.93;;;2.00;;
8642;SDS011;4359;49.358;11.256;2022-07-09T06:52:08;4.88;;;1.83;;
8642;SDS011;4359;49.358;11.256;2022-07-09T06:54:35;3.80;;;1.60;;
8642;SDS011;4359;49.358;11.256;2022-07-09T06:57:01;6.82;;;2.17;;
8642;SDS011;4359;49.358;11.256;2022-07-09T06:59:28;4.90;;;1.63;;
8642;SDS011;4359;49.358;11.256;2022-07-09T07:01:54;6.28;;;1.80;;
8642;SDS011;4359;49.358;11.256;2022-07-09T07:04:19;3.45;;;1.50;;
8642;SDS011;4359;49.358;11.256;2022-07-09T07:06:45;5.35;;;2.05;;
8642;SDS011;4359;49.358;11.256;2022-07-09T07:09:13;5.82;;;1.75;;
8642;SDS011;4359;49.358;11.256;2022-07-09T07:11:40;5.25;;;1.83;;
8642;SDS011;4359;49.358;11.256;2022-07-09T07:14:06;6.97;;;1.40;;
8642;SDS011;4359;49.358;11.256;2022-07-09T07:16:31;3.33;;;1.40;;
8642;SDS011;4359;49.358;11.256;2022-07-09T07:18:57;3.95;;;1.60;;
8642;SDS011;4359;49.358;11.256;2022-07-09T07:21:23;4.10;;;1.50;;
8642;SDS011;4359;49.358;11.256;2022-07-09T07:23:48;5.78;;;1.30;;
8642;SDS011;4359;49.358;11.256;2022-07-09T07:26:14;5.80;;;1.30;;
8642;SDS011;4359;49.358;11.256;2022-07-09T07:28:39;7.88;;;1.75;;
8642;SDS011;4359;49.358;11.256;2022-07-09T07:31:05;6.45;;;1.30;;
8642;SDS011;4359;49.358;11.256;2022-07-09T07:33:31;4.25;;;1.20;;
8642;SDS011;4359;49.358;11.256;2022-07-09T07:35:56;5.30;;;1.50;;
8642;SDS011;4359;49.358;11.256;2022-07-09T07:38:22;3.78;;;1.00;;
8642;SDS011;4359;49.358;11.256;2022-07-09T07:40:52;3.65;;;1.50;;
8642;SDS011;4359;49.358;11.256;2022-07-09T07:43:19;4.63;;;1.27;;
8642;SDS011;4359;49.358;11.256;2022-07-09T07:45:44;3.28;;;1.15;;
8642;SDS011;4359;49.358;11.256;2022-07-09T07:48:10;3.90;;;1.40;;
8642;SDS011;4359;49.358;11.256;2022-07-09T07:50:36;4.18;;;1.13;;
8642;SDS011;4359;49.358;11.256;2022-07-09T07:53:04;3.75;;;1.17;;
8642;SDS011;4359;49.358;11.256;2022-07-09T07:55:30;6.38;;;1.50;;
8642;SDS011;4359;49.358;11.256;2022-07-09T07:57:56;4.30;;;1.08;;
8642;SDS011;4359;49.358;11.256;2022-07-09T08:00:21;5.32;;;1.13;;
8642;SDS011;4359;49.358;11.256;2022-07-09T08:02:47;4.03;;;1.30;;
8642;SDS011;4359;49.358;11.256;2022-07-09T08:05:13;3.45;;;1.10;;
8642;SDS011;4359;49.358;11.256;2022-07-09T08:07:39;2.92;;;0.93;;
8642;SDS011;4359;49.358;11.256;2022-07-09T08:10:04;4.78;;;0.95;;
8642;SDS011;4359;49.358;11.256;2022-07-09T08:12:30;2.47;;;0.90;;
8642;SDS011;4359;49.358;11.256;2022-07-09T08:14:56;4.13;;;1.10;;
8642;SDS011;4359;49.358;11.256;2022-07-09T08:17:22;3.80;;;0.85;;
8642;SDS011;4359;49.358;11.256;2022-07-09T08:19:48;3.10;;;1.02;;
8642;SDS011;4359;49.358;11.256;2022-07-09T08:22:13;7.63;;;1.08;;
8642;SDS011;4359;49.358;11.256;2022-07-09T08:24:39;4.90;;;1.05;;
8642;SDS011;4359;49.358;11.256;2022-07-09T08:27:05;3.63;;;1.05;;
8642;SDS011;4359;49.358;11.256;2022-07-09T08:29:30;3.03;;;1.05;;
8642;SDS011;4359;49.358;11.256;2022-07-09T08:31:56;2.05;;;1.00;;
8642;SDS011;4359;49.358;11.256;2022-07-09T08:34:22;3.72;;;1.23;;
8642;SDS011;4359;49.358;11.256;2022-07-09T08:36:47;3.25;;;1.13;;
8642;SDS011;4359;49.358;11.256;2022-07-09T08:39:13;4.00;;;1.00;;
8642;SDS011;4359;49.358;11.256;2022-07-09T08:41:39;6.72;;;1.20;;
8642;SDS011;4359;49.358;11.256;2022-07-09T08:44:04;6.05;;;1.58;;
8642;SDS011;4359;49.358;11.256;2022-07-09T08:46:34;4.63;;;1.10;;
8642;SDS011;4359;49.358;11.256;2022-07-09T08:49:00;3.38;;;1.13;;
8642;SDS011;4359;49.358;11.256;2022-07-09T08:51:28;5.30;;;1.40;;
8642;SDS011;4359;49.358;11.256;2022-07-09T08:53:55;2.90;;;1.00;;
8642;SDS011;4359;49.358;11.256;2022-07-09T08:56:21;3.15;;;1.10;;
8642;SDS011;4359;49.358;11.256;2022-07-09T08:58:47;3.35;;;1.20;;
8642;SDS011;4359;49.358;11.256;2022-07-09T09:01:16;2.70;;;1.10;;
8642;SDS011;4359;49.358;11.256;2022-07-09T09:03:42;4.78;;;1.10;;
8642;SDS011;4359;49.358;11.256;2022-07-09T09:06:09;3.83;;;0.93;;
8642;SDS011;4359;49.358;11.256;2022-07-09T09:08:39;6.50;;;1.25;;
8642;SDS011;4359;49.358;11.256;2022-07-09T09:11:13;3.88;;;1.17;;
8642;SDS011;4359;49.358;11.256;2022-07-09T09:13:42;3.05;;;1.17;;
8642;SDS011;4359;49.358;11.256;2022-07-09T09:16:10;4.05;;;1.20;;
8642;SDS011;4359;49.358;11.256;2022-07-09T09:18:41;4.53;;;1.25;;
8642;SDS011;4359;49.358;11.256;2022-07-09T09:21:11;4.28;;;1.58;;
8642;SDS011;4359;49.358;11.256;2022-07-09T09:23:44;3.03;;;1.00;;
8642;SDS011;4359;49.358;11.256;2022-07-09T09:28:46;2.80;;;1.17;;
8642;SDS011;4359;49.358;11.256;2022-07-09T09:31:22;3.80;;;1.10;;
8642;SDS011;4359;49.358;11.256;2022-07-09T09:33:50;3.97;;;1.10;;
8642;SDS011;4359;49.358;11.256;2022-07-09T09:36:30;4.47;;;1.40;;
8642;SDS011;4359;49.358;11.256;2022-07-09T09:41:46;5.28;;;1.35;;
8642;SDS011;4359;49.358;11.256;2022-07-09T09:44:27;6.47;;;1.30;;
8642;SDS011;4359;49.358;11.256;2022-07-09T09:47:02;3.88;;;1.20;;
8642;SDS011;4359;49.358;11.256;2022-07-09T09:49:29;3.47;;;0.93;;
8642;SDS011;4359;49.358;11.256;2022-07-09T09:54:31;3.35;;;0.98;;
8642;SDS011;4359;49.358;11.256;2022-07-09T09:56:58;3.72;;;1.27;;
8642;SDS011;4359;49.358;11.256;2022-07-09T09:59:25;4.35;;;1.17;;
8642;SDS011;4359;49.358;11.256;2022-07-09T10:01:51;4.40;;;1.95;;
8642;SDS011;4359;49.358;11.256;2022-07-09T10:04:17;6.43;;;0.80;;
8642;SDS011;4359;49.358;11.256;2022-07-09T10:06:43;4.10;;;1.13;;
8642;SDS011;4359;49.358;11.256;2022-07-09T10:09:13;5.53;;;1.00;;
8642;SDS011;4359;49.358;11.256;2022-07-09T10:14:14;3.75;;;1.20;;
8642;SDS011;4359;49.358;11.256;2022-07-09T10:16:49;3.92;;;1.10;;
8642;SDS011;4359;49.358;11.256;2022-07-09T10:19:28;4.15;;;1.13;;
8642;SDS011;4359;49.358;11.256;2022-07-09T10:21:56;4.15;;;1.23;;
8642;SDS011;4359;49.358;11.256;2022-07-09T10:24:30;3.75;;;1.02;;
8642;SDS011;4359;49.358;11.256;2022-07-09T10:27:15;2.72;;;1.10;;
8642;SDS011;4359;49.358;11.256;2022-07-09T10:42:41;4.13;;;1.38;;
8642;SDS011;4359;49.358;11.256;2022-07-09T10:45:22;4.22;;;1.20;;
8642;SDS011;4359;49.358;11.256;2022-07-09T10:47:58;2.92;;;0.85;;
8642;SDS011;4359;49.358;11.256;2022-07-09T10:50:25;4.45;;;0.93;;
8642;SDS011;4359;49.358;11.256;2022-07-09T10:52:55;3.75;;;1.10;;
8642;SDS011;4359;49.358;11.256;2022-07-09T10:55:23;2.47;;;1.10;;
8642;SDS011;4359;49.358;11.256;2022-07-09T10:57:50;2.53;;;0.90;;
8642;SDS011;4359;49.358;11.256;2022-07-09T11:00:16;3.30;;;1.00;;
8642;SDS011;4359;49.358;11.256;2022-07-09T11:02:53;3.22;;;1.00;;
8642;SDS011;4359;49.358;11.256;2022-07-09T11:05:23;6.25;;;1.20;;
8642;SDS011;4359;49.358;11.256;2022-07-09T11:07:54;3.35;;;1.10;;
8642;SDS011;4359;49.358;11.256;2022-07-09T11:10:27;3.10;;;1.00;;
8642;SDS011;4359;49.358;11.256;2022-07-09T11:12:55;3.65;;;1.00;;
8642;SDS011;4359;49.358;11.256;2022-07-09T11:15:24;4.28;;;1.00;;
8642;SDS011;4359;49.358;11.256;2022-07-09T11:17:58;4.28;;;1.20;;
8642;SDS011;4359;49.358;11.256;2022-07-09T11:20:25;3.88;;;1.20;;
8642;SDS011;4359;49.358;11.256;2022-07-09T11:22:51;6.03;;;1.42;;
8642;SDS011;4359;49.358;11.256;2022-07-09T11:25:17;5.28;;;1.33;;
8642;SDS011;4359;49.358;11.256;2022-07-09T11:27:43;5.00;;;1.00;;
8642;SDS011;4359;49.358;11.256;2022-07-09T11:30:15;4.78;;;1.33;;
8642;SDS011;4359;49.358;11.256;2022-07-09T11:32:42;3.00;;;1.00;;
8642;SDS011;4359;49.358;11.256;2022-07-09T11:35:09;3.40;;;1.20;;
8642;SDS011;4359;49.358;11.256;2022-07-09T11:37:35;4.40;;;1.17;;
8642;SDS011;4359;49.358;11.256;2022-07-09T11:40:02;8.00;;;1.52;;
8642;SDS011;4359;49.358;11.256;2022-07-09T11:42:28;3.53;;;1.50;;
8642;SDS011;4359;49.358;11.256;2022-07-09T11:44:55;4.90;;;1.30;;
8642;SDS011;4359;49.358;11.256;2022-07-09T11:47:36;3.35;;;1.20;;
8642;SDS011;4359;49.358;11.256;2022-07-09T11:50:12;3.67;;;1.40;;
8642;SDS011;4359;49.358;11.256;2022-07-09T11:52:49;4.60;;;1.48;;
8642;SDS011;4359;49.358;11.256;2022-07-09T11:57:57;7.93;;;1.70;;
8642;SDS011;4359;49.358;11.256;2022-07-09T12:00:28;5.38;;;1.48;;
8642;SDS011;4359;49.358;11.256;2022-07-09T12:02:56;4.82;;;1.50;;
8642;SDS011;4359;49.358;11.256;2022-07-09T12:05:34;5.90;;;1.70;;
8642;SDS011;4359;49.358;11.256;2022-07-09T12:08:07;4.82;;;1.50;;
8642;SDS011;4359;49.358;11.256;2022-07-09T12:10:34;3.53;;;1.50;;
8642;SDS011;4359;49.358;11.256;2022-07-09T12:13:01;7.03;;;1.38;;
8642;SDS011;4359;49.358;11.256;2022-07-09T12:15:28;4.53;;;1.60;;
8642;SDS011;4359;49.358;11.256;2022-07-09T12:17:55;3.35;;;1.60;;
8642;SDS011;4359;49.358;11.256;2022-07-09T12:20:22;3.10;;;1.35;;
8642;SDS011;4359;49.358;11.256;2022-07-09T12:22:49;6.18;;;1.63;;
8642;SDS011;4359;49.358;11.256;2022-07-09T12:25:15;3.50;;;1.40;;
8642;SDS011;4359;49.358;11.256;2022-07-09T12:27:41;5.40;;;1.80;;
8642;SDS011;4359;49.358;11.256;2022-07-09T12:30:07;3.45;;;1.25;;
8642;SDS011;4359;49.358;11.256;2022-07-09T12:32:33;4.22;;;1.40;;
8642;SDS011;4359;49.358;11.256;2022-07-09T12:35:00;4.97;;;1.20;;
8642;SDS011;4359;49.358;11.256;2022-07-09T12:37:26;3.80;;;1.45;;
8642;SDS011;4359;49.358;11.256;2022-07-09T12:39:52;2.40;;;1.20;;
8642;SDS011;4359;49.358;11.256;2022-07-09T12:42:19;5.10;;;1.55;;
8642;SDS011;4359;49.358;11.256;2022-07-09T12:44:46;4.68;;;1.52;;
8642;SDS011;4359;49.358;11.256;2022-07-09T12:47:12;3.92;;;1.50;;
8642;SDS011;4359;49.358;11.256;2022-07-09T12:49:38;4.15;;;2.15;;
8642;SDS011;4359;49.358;11.256;2022-07-09T12:52:04;8.57;;;1.95;;
8642;SDS011;4359;49.358;11.256;2022-07-09T12:54:30;8.73;;;1.70;;
8642;SDS011;4359;49.358;11.256;2022-07-09T12:56:56;3.30;;;1.25;;
8642;SDS011;4359;49.358;11.256;2022-07-09T12:59:23;4.35;;;1.40;;
8642;SDS011;4359;49.358;11.256;2022-07-09T13:01:50;7.88;;;2.00;;
8642;SDS011;4359;49.358;11.256;2022-07-09T13:04:15;4.95;;;1.40;;
8642;SDS011;4359;49.358;11.256;2022-07-09T13:06:41;2.90;;;1.45;;
8642;SDS011;4359;49.358;11.256;2022-07-09T13:09:07;3.45;;;1.25;;
8642;SDS011;4359;49.358;11.256;2022-07-09T13:11:35;3.90;;;1.50;;
8642;SDS011;4359;49.358;11.256;2022-07-09T13:14:02;6.15;;;1.42;;
8642;SDS011;4359;49.358;11.256;2022-07-09T13:16:28;6.28;;;1.58;;
8642;SDS011;4359;49.358;11.256;2022-07-09T13:18:54;4.32;;;2.25;;
8642;SDS011;4359;49.358;11.256;2022-07-09T13:21:20;6.43;;;2.75;;
8642;SDS011;4359;49.358;11.256;2022-07-09T13:23:47;4.25;;;1.92;;
8642;SDS011;4359;49.358;11.256;2022-07-09T13:26:13;4.45;;;2.03;;
8642;SDS011;4359;49.358;11.256;2022-07-09T13:28:39;6.35;;;2.88;;
8642;SDS011;4359;49.358;11.256;2022-07-09T13:31:05;3.65;;;1.67;;
8642;SDS011;4359;49.358;11.256;2022-07-09T13:33:32;6.35;;;2.05;;
8642;SDS011;4359;49.358;11.256;2022-07-09T13:35:59;10.38;;;3.60;;
8642;SDS011;4359;49.358;11.256;2022-07-09T13:38:28;5.07;;;2.38;;
8642;SDS011;4359;49.358;11.256;2022-07-09T13:40:55;7.28;;;2.97;;
8642;SDS011;4359;49.358;11.256;2022-07-09T13:43:21;2.90;;;1.50;;
8642;SDS011;4359;49.358;11.256;2022-07-09T13:45:49;6.53;;;2.38;;
8642;SDS011;4359;49.358;11.256;2022-07-09T13:48:15;7.18;;;2.22;;
8642;SDS011;4359;49.358;11.256;2022-07-09T13:50:41;3.10;;;1.58;;
8642;SDS011;4359;49.358;11.256;2022-07-09T13:53:07;4.10;;;1.60;;
8642;SDS011;4359;49.358;11.256;2022-07-09T13:55:32;6.95;;;3.05;;
8642;SDS011;4359;49.358;11.256;2022-07-09T13:57:58;6.03;;;1.80;;
8642;SDS011;4359;49.358;11.256;2022-07-09T14:00:24;2.83;;;1.38;;
8642;SDS011;4359;49.358;11.256;2022-07-09T14:02:50;4.70;;;1.67;;
8642;SDS011;4359;49.358;11.256;2022-07-09T14:05:15;4.43;;;1.80;;
8642;SDS011;4359;49.358;11.256;2022-07-09T14:07:41;3.47;;;1.50;;
8642;SDS011;4359;49.358;11.256;2022-07-09T14:10:07;3.85;;;1.50;;
8642;SDS011;4359;49.358;11.256;2022-07-09T14:12:33;4.75;;;1.30;;
8642;SDS011;4359;49.358;11.256;2022-07-09T14:14:58;3.25;;;1.60;;
8642;SDS011;4359;49.358;11.256;2022-07-09T14:17:24;4.10;;;1.20;;
8642;SDS011;4359;49.358;11.256;2022-07-09T14:19:51;4.25;;;1.50;;
8642;SDS011;4359;49.358;11.256;2022-07-09T14:22:17;4.38;;;1.30;;
8642;SDS011;4359;49.358;11.256;2022-07-09T14:24:44;6.65;;;1.45;;
8642;SDS011;4359;49.358;11.256;2022-07-09T14:27:10;2.75;;;1.10;;
8642;SDS011;4359;49.358;11.256;2022-07-09T14:29:37;3.78;;;1.30;;
8642;SDS011;4359;49.358;11.256;2022-07-09T14:32:04;3.88;;;1.60;;
8642;SDS011;4359;49.358;11.256;2022-07-09T14:34:32;2.95;;;1.30;;
8642;SDS011;4359;49.358;11.256;2022-07-09T14:36:58;3.13;;;1.30;;
8642;SDS011;4359;49.358;11.256;2022-07-09T14:39:24;3.38;;;1.20;;
8642;SDS011;4359;49.358;11.256;2022-07-09T14:41:50;5.10;;;1.27;;
8642;SDS011;4359;49.358;11.256;2022-07-09T14:44:16;7.82;;;1.45;;
8642;SDS011;4359;49.358;11.256;2022-07-09T14:46:42;8.70;;;2.90;;
8642;SDS011;4359;49.358;11.256;2022-07-09T14:49:08;3.25;;;1.60;;
8642;SDS011;4359;49.358;11.256;2022-07-09T14:51:34;4.85;;;2.70;;
8642;SDS011;4359;49.358;11.256;2022-07-09T14:54:02;4.05;;;1.88;;
8642;SDS011;4359;49.358;11.256;2022-07-09T14:56:28;3.13;;;1.58;;
8642;SDS011;4359;49.358;11.256;2022-07-09T14:58:53;2.35;;;1.30;;
8642;SDS011;4359;49.358;11.256;2022-07-09T15:01:19;6.78;;;4.32;;
8642;SDS011;4359;49.358;11.256;2022-07-09T15:03:45;3.38;;;2.20;;
8642;SDS011;4359;49.358;11.256;2022-07-09T15:06:11;5.13;;;3.50;;
8642;SDS011;4359;49.358;11.256;2022-07-09T15:08:37;5.00;;;1.33;;
8642;SDS011;4359;49.358;11.256;2022-07-09T15:11:03;3.30;;;1.52;;
8642;SDS011;4359;49.358;11.256;2022-07-09T15:13:29;6.82;;;3.58;;
8642;SDS011;4359;49.358;11.256;2022-07-09T15:15:55;8.52;;;4.25;;
8642;SDS011;4359;49.358;11.256;2022-07-09T15:18:21;6.30;;;2.85;;
8642;SDS011;4359;49.358;11.256;2022-07-09T15:20:47;4.57;;;1.50;;
8642;SDS011;4359;49.358;11.256;2022-07-09T15:23:13;3.15;;;1.52;;